sensor_id;sensor_type;location;lat;lon;timestamp;P1;durP1;ratioP1;P2;durP2;ratioP2
73776;SDS011;62088;50.240;2.696;2023-02-21T00:01:37;25.42;;;21.25;;
73776;SDS011;62088;50.240;2.696;2023-02-21T00:04:23;26.92;;;22.02;;
73776;SDS011;62088;50.240;2.696;2023-02-21T00:07:09;20.63;;;15.40;;
73776;SDS011;62088;50.240;2.696;2023-02-21T00:09:54;25.98;;;21.70;;
73776;SDS011;62088;50.240;2.696;2023-02-21T00:12:39;22.92;;;13.50;;
73776;SDS011;62088;50.240;2.696;2023-02-21T00:15:25;21.13;;;14.43;;
73776;SDS011;62088;50.240;2.696;2023-02-21T00:18:11;21.88;;;16.23;;
73776;SDS011;62088;50.240;2.696;2023-02-21T00:20:56;22.67;;;15.60;;
73776;SDS011;62088;50.240;2.696;2023-02-21T00:23:42;18.65;;;13.45;;
73776;SDS011;62088;50.240;2.696;2023-02-21T00:26:27;19.05;;;12.80;;
73776;SDS011;62088;50.240;2.696;2023-02-21T00:29:13;18.23;;;12.63;;
73776;SDS011;62088;50.240;2.696;2023-02-21T00:31:59;23.13;;;18.95;;
73776;SDS011;62088;50.240;2.696;2023-02-21T00:34:44;21.30;;;12.38;;
73776;SDS011;62088;50.240;2.696;2023-02-21T00:37:30;22.05;;;17.85;;
73776;SDS011;62088;50.240;2.696;2023-02-21T00:40:16;17.88;;;12.63;;
73776;SDS011;62088;50.240;2.696;2023-02-21T00:43:01;20.80;;;13.98;;
73776;SDS011;62088;50.240;2.696;2023-02-21T00:45:47;18.60;;;12.45;;
73776;SDS011;62088;50.240;2.696;2023-02-21T00:48:32;21.55;;;13.73;;
73776;SDS011;62088;50.240;2.696;2023-02-21T00:51:18;23.58;;;17.88;;
73776;SDS011;62088;50.240;2.696;2023-02-21T00:54:04;24.63;;;20.27;;
73776;SDS011;62088;50.240;2.696;2023-02-21T00:56:49;21.23;;;15.45;;
73776;SDS011;62088;50.240;2.696;2023-02-21T00:59:35;23.23;;;19.42;;
73776;SDS011;62088;50.240;2.696;2023-02-21T01:02:20;30.05;;;14.50;;
73776;SDS011;62088;50.240;2.696;2023-02-21T01:05:06;16.30;;;11.13;;
73776;SDS011;62088;50.240;2.696;2023-02-21T01:07:51;19.88;;;14.32;;
73776;SDS011;62088;50.240;2.696;2023-02-21T01:10:39;13.60;;;9.68;;
73776;SDS011;62088;50.240;2.696;2023-02-21T01:13:26;16.33;;;11.70;;
73776;SDS011;62088;50.240;2.696;2023-02-21T01:16:11;15.65;;;10.10;;
73776;SDS011;62088;50.240;2.696;2023-02-21T01:18:57;14.13;;;9.80;;
73776;SDS011;62088;50.240;2.696;2023-02-21T01:21:42;15.95;;;13.93;;
73776;SDS011;62088;50.240;2.696;2023-02-21T01:24:28;18.98;;;9.38;;
73776;SDS011;62088;50.240;2.696;2023-02-21T01:27:13;13.38;;;8.98;;
73776;SDS011;62088;50.240;2.696;2023-02-21T01:29:59;16.02;;;8.57;;
73776;SDS011;62088;50.240;2.696;2023-02-21T01:32:44;11.13;;;8.32;;
73776;SDS011;62088;50.240;2.696;2023-02-21T01:35:30;10.80;;;7.32;;
73776;SDS011;62088;50.240;2.696;2023-02-21T01:38:16;25.42;;;11.32;;
73776;SDS011;62088;50.240;2.696;2023-02-21T01:41:02;21.63;;;6.85;;
73776;SDS011;62088;50.240;2.696;2023-02-21T01:43:55;12.82;;;7.75;;
73776;SDS011;62088;50.240;2.696;2023-02-21T01:46:42;11.43;;;8.30;;
73776;SDS011;62088;50.240;2.696;2023-02-21T01:49:27;16.92;;;11.00;;
73776;SDS011;62088;50.240;2.696;2023-02-21T01:52:14;22.65;;;8.43;;
73776;SDS011;62088;50.240;2.696;2023-02-21T01:55:00;13.50;;;8.23;;
73776;SDS011;62088;50.240;2.696;2023-02-21T01:57:47;10.98;;;8.30;;
73776;SDS011;62088;50.240;2.696;2023-02-21T02:00:35;27.20;;;8.05;;
73776;SDS011;62088;50.240;2.696;2023-02-21T02:03:21;21.42;;;8.07;;
73776;SDS011;62088;50.240;2.696;2023-02-21T02:06:07;14.70;;;9.93;;
73776;SDS011;62088;50.240;2.696;2023-02-21T02:09:05;10.73;;;6.68;;
73776;SDS011;62088;50.240;2.696;2023-02-21T02:35:06;13.35;;;5.40;;
73776;SDS011;62088;50.240;2.696;2023-02-21T02:37:57;6.40;;;4.53;;
73776;SDS011;62088;50.240;2.696;2023-02-21T02:40:42;7.65;;;5.00;;
73776;SDS011;62088;50.240;2.696;2023-02-21T02:45:50;8.20;;;4.10;;
73776;SDS011;62088;50.240;2.696;2023-02-21T02:48:35;6.63;;;4.50;;
73776;SDS011;62088;50.240;2.696;2023-02-21T02:51:07;12.68;;;4.93;;
73776;SDS011;62088;50.240;2.696;2023-02-21T02:53:38;10.93;;;4.57;;
73776;SDS011;62088;50.240;2.696;2023-02-21T02:56:07;8.98;;;4.90;;
73776;SDS011;62088;50.240;2.696;2023-02-21T02:58:47;6.85;;;4.70;;
73776;SDS011;62088;50.240;2.696;2023-02-21T03:15:40;9.98;;;6.22;;
73776;SDS011;62088;50.240;2.696;2023-02-21T03:18:13;7.45;;;4.65;;
73776;SDS011;62088;50.240;2.696;2023-02-21T03:20:49;9.27;;;5.68;;
73776;SDS011;62088;50.240;2.696;2023-02-21T03:23:21;6.75;;;4.53;;
73776;SDS011;62088;50.240;2.696;2023-02-21T03:25:50;6.95;;;5.45;;
73776;SDS011;62088;50.240;2.696;2023-02-21T03:28:20;7.22;;;5.53;;
73776;SDS011;62088;50.240;2.696;2023-02-21T03:30:49;8.93;;;4.28;;
73776;SDS011;62088;50.240;2.696;2023-02-21T03:33:19;6.35;;;3.92;;
73776;SDS011;62088;50.240;2.696;2023-02-21T03:35:47;6.70;;;4.45;;
73776;SDS011;62088;50.240;2.696;2023-02-21T03:38:14;6.55;;;4.43;;
73776;SDS011;62088;50.240;2.696;2023-02-21T03:40:42;6.53;;;5.22;;
73776;SDS011;62088;50.240;2.696;2023-02-21T03:43:09;6.53;;;4.07;;
73776;SDS011;62088;50.240;2.696;2023-02-21T03:45:45;7.60;;;5.55;;
73776;SDS011;62088;50.240;2.696;2023-02-21T03:48:15;6.93;;;4.13;;
73776;SDS011;62088;50.240;2.696;2023-02-21T03:50:58;7.13;;;4.95;;
73776;SDS011;62088;50.240;2.696;2023-02-21T03:53:31;7.15;;;4.05;;
73776;SDS011;62088;50.240;2.696;2023-02-21T03:56:00;6.22;;;3.90;;
73776;SDS011;62088;50.240;2.696;2023-02-21T03:58:36;9.85;;;4.68;;
73776;SDS011;62088;50.240;2.696;2023-02-21T04:01:04;6.93;;;3.97;;
73776;SDS011;62088;50.240;2.696;2023-02-21T04:03:31;7.40;;;4.70;;
73776;SDS011;62088;50.240;2.696;2023-02-21T04:06:01;7.82;;;6.47;;
73776;SDS011;62088;50.240;2.696;2023-02-21T04:08:30;7.00;;;4.88;;
73776;SDS011;62088;50.240;2.696;2023-02-21T04:10:57;7.47;;;5.50;;
73776;SDS011;62088;50.240;2.696;2023-02-21T04:13:28;6.50;;;4.13;;
73776;SDS011;62088;50.240;2.696;2023-02-21T04:15:56;7.70;;;4.50;;
73776;SDS011;62088;50.240;2.696;2023-02-21T04:18:24;7.28;;;4.15;;
73776;SDS011;62088;50.240;2.696;2023-02-21T04:20:52;6.28;;;3.88;;
73776;SDS011;62088;50.240;2.696;2023-02-21T04:23:21;7.03;;;4.40;;
73776;SDS011;62088;50.240;2.696;2023-02-21T04:25:48;7.10;;;5.50;;
73776;SDS011;62088;50.240;2.696;2023-02-21T04:28:23;7.32;;;4.25;;
73776;SDS011;62088;50.240;2.696;2023-02-21T04:30:50;7.97;;;4.82;;
73776;SDS011;62088;50.240;2.696;2023-02-21T04:33:18;8.98;;;5.10;;
73776;SDS011;62088;50.240;2.696;2023-02-21T04:35:45;7.28;;;4.65;;
73776;SDS011;62088;50.240;2.696;2023-02-21T04:38:22;6.85;;;4.38;;
73776;SDS011;62088;50.240;2.696;2023-02-21T04:40:49;7.40;;;6.38;;
73776;SDS011;62088;50.240;2.696;2023-02-21T04:43:16;7.38;;;4.78;;
73776;SDS011;62088;50.240;2.696;2023-02-21T04:45:43;7.10;;;5.13;;
73776;SDS011;62088;50.240;2.696;2023-02-21T04:48:10;10.15;;;4.57;;
73776;SDS011;62088;50.240;2.696;2023-02-21T04:50:37;9.80;;;6.35;;
73776;SDS011;62088;50.240;2.696;2023-02-21T04:53:04;7.68;;;5.25;;
73776;SDS011;62088;50.240;2.696;2023-02-21T04:55:31;7.75;;;5.78;;
73776;SDS011;62088;50.240;2.696;2023-02-21T04:57:58;5.93;;;3.65;;
73776;SDS011;62088;50.240;2.696;2023-02-21T05:00:25;6.80;;;4.72;;
73776;SDS011;62088;50.240;2.696;2023-02-21T05:02:52;7.40;;;5.97;;
73776;SDS011;62088;50.240;2.696;2023-02-21T05:05:19;7.80;;;6.13;;
73776;SDS011;62088;50.240;2.696;2023-02-21T05:07:46;5.47;;;3.53;;
73776;SDS011;62088;50.240;2.696;2023-02-21T05:10:15;8.43;;;4.55;;
73776;SDS011;62088;50.240;2.696;2023-02-21T05:12:43;7.47;;;6.20;;
73776;SDS011;62088;50.240;2.696;2023-02-21T05:15:11;8.43;;;4.00;;
73776;SDS011;62088;50.240;2.696;2023-02-21T05:17:39;7.30;;;4.60;;
73776;SDS011;62088;50.240;2.696;2023-02-21T05:20:06;6.97;;;4.30;;
73776;SDS011;62088;50.240;2.696;2023-02-21T05:22:37;7.88;;;6.15;;
73776;SDS011;62088;50.240;2.696;2023-02-21T05:25:06;7.53;;;5.03;;
73776;SDS011;62088;50.240;2.696;2023-02-21T05:27:39;7.55;;;4.90;;
73776;SDS011;62088;50.240;2.696;2023-02-21T05:30:06;7.40;;;5.78;;
73776;SDS011;62088;50.240;2.696;2023-02-21T05:32:34;6.75;;;5.00;;
73776;SDS011;62088;50.240;2.696;2023-02-21T05:35:01;7.97;;;6.15;;
73776;SDS011;62088;50.240;2.696;2023-02-21T05:37:29;5.80;;;4.03;;
73776;SDS011;62088;50.240;2.696;2023-02-21T05:39:56;6.18;;;3.65;;
73776;SDS011;62088;50.240;2.696;2023-02-21T05:42:24;7.28;;;3.92;;
73776;SDS011;62088;50.240;2.696;2023-02-21T05:44:51;6.18;;;4.20;;
73776;SDS011;62088;50.240;2.696;2023-02-21T05:47:18;5.93;;;3.90;;
73776;SDS011;62088;50.240;2.696;2023-02-21T05:49:45;6.80;;;5.22;;
73776;SDS011;62088;50.240;2.696;2023-02-21T05:52:13;6.07;;;3.47;;
73776;SDS011;62088;50.240;2.696;2023-02-21T05:54:42;5.15;;;3.20;;
73776;SDS011;62088;50.240;2.696;2023-02-21T05:57:09;5.63;;;3.47;;
73776;SDS011;62088;50.240;2.696;2023-02-21T05:59:37;7.65;;;5.70;;
73776;SDS011;62088;50.240;2.696;2023-02-21T06:02:04;5.68;;;3.67;;
73776;SDS011;62088;50.240;2.696;2023-02-21T06:04:32;6.43;;;3.72;;
73776;SDS011;62088;50.240;2.696;2023-02-21T06:06:59;7.55;;;5.63;;
73776;SDS011;62088;50.240;2.696;2023-02-21T06:09:26;6.03;;;4.20;;
73776;SDS011;62088;50.240;2.696;2023-02-21T06:11:54;6.45;;;3.90;;
73776;SDS011;62088;50.240;2.696;2023-02-21T06:14:22;6.05;;;3.28;;
73776;SDS011;62088;50.240;2.696;2023-02-21T06:16:50;5.82;;;3.35;;
73776;SDS011;62088;50.240;2.696;2023-02-21T06:19:17;5.80;;;3.45;;
73776;SDS011;62088;50.240;2.696;2023-02-21T06:21:44;5.15;;;3.83;;
73776;SDS011;62088;50.240;2.696;2023-02-21T06:24:12;5.10;;;3.63;;
73776;SDS011;62088;50.240;2.696;2023-02-21T06:26:39;5.05;;;3.40;;
73776;SDS011;62088;50.240;2.696;2023-02-21T06:29:10;5.35;;;3.10;;
73776;SDS011;62088;50.240;2.696;2023-02-21T06:31:37;4.75;;;3.45;;
73776;SDS011;62088;50.240;2.696;2023-02-21T06:34:06;4.78;;;2.78;;
73776;SDS011;62088;50.240;2.696;2023-02-21T06:36:33;4.85;;;3.05;;
73776;SDS011;62088;50.240;2.696;2023-02-21T06:39:01;4.38;;;2.67;;
73776;SDS011;62088;50.240;2.696;2023-02-21T06:41:28;6.20;;;3.88;;
73776;SDS011;62088;50.240;2.696;2023-02-21T06:43:57;4.68;;;2.63;;
73776;SDS011;62088;50.240;2.696;2023-02-21T06:46:25;5.25;;;2.80;;
73776;SDS011;62088;50.240;2.696;2023-02-21T06:48:54;5.10;;;3.90;;
73776;SDS011;62088;50.240;2.696;2023-02-21T06:51:21;5.15;;;3.35;;
73776;SDS011;62088;50.240;2.696;2023-02-21T06:53:55;4.68;;;2.60;;
73776;SDS011;62088;50.240;2.696;2023-02-21T06:56:23;4.88;;;3.72;;
73776;SDS011;62088;50.240;2.696;2023-02-21T06:58:50;5.18;;;3.83;;
73776;SDS011;62088;50.240;2.696;2023-02-21T07:01:17;11.38;;;7.72;;
73776;SDS011;62088;50.240;2.696;2023-02-21T07:03:45;11.32;;;6.75;;
73776;SDS011;62088;50.240;2.696;2023-02-21T07:06:13;7.43;;;5.80;;
73776;SDS011;62088;50.240;2.696;2023-02-21T07:08:40;6.72;;;4.25;;
73776;SDS011;62088;50.240;2.696;2023-02-21T07:11:08;6.28;;;4.05;;
73776;SDS011;62088;50.240;2.696;2023-02-21T07:13:35;5.70;;;4.65;;
73776;SDS011;62088;50.240;2.696;2023-02-21T07:16:02;5.78;;;3.60;;
73776;SDS011;62088;50.240;2.696;2023-02-21T07:18:30;5.97;;;3.95;;
73776;SDS011;62088;50.240;2.696;2023-02-21T07:20:57;5.50;;;3.75;;
73776;SDS011;62088;50.240;2.696;2023-02-21T07:23:24;5.85;;;4.72;;
73776;SDS011;62088;50.240;2.696;2023-02-21T07:25:51;7.07;;;3.92;;
73776;SDS011;62088;50.240;2.696;2023-02-21T07:28:18;5.85;;;4.78;;
73776;SDS011;62088;50.240;2.696;2023-02-21T07:30:45;7.47;;;3.97;;
73776;SDS011;62088;50.240;2.696;2023-02-21T07:33:13;6.47;;;4.15;;
73776;SDS011;62088;50.240;2.696;2023-02-21T07:35:40;6.65;;;4.28;;
73776;SDS011;62088;50.240;2.696;2023-02-21T07:38:07;5.82;;;4.07;;
73776;SDS011;62088;50.240;2.696;2023-02-21T07:40:34;7.63;;;5.95;;
73776;SDS011;62088;50.240;2.696;2023-02-21T07:43:01;9.90;;;4.47;;
73776;SDS011;62088;50.240;2.696;2023-02-21T07:45:28;6.18;;;3.47;;
73776;SDS011;62088;50.240;2.696;2023-02-21T07:47:55;7.47;;;5.63;;
73776;SDS011;62088;50.240;2.696;2023-02-21T07:50:22;7.00;;;4.80;;
73776;SDS011;62088;50.240;2.696;2023-02-21T07:52:50;6.70;;;4.57;;
73776;SDS011;62088;50.240;2.696;2023-02-21T07:55:17;5.97;;;4.38;;
73776;SDS011;62088;50.240;2.696;2023-02-21T07:57:44;5.50;;;3.45;;
73776;SDS011;62088;50.240;2.696;2023-02-21T08:00:12;6.85;;;3.75;;
73776;SDS011;62088;50.240;2.696;2023-02-21T08:02:39;6.50;;;3.80;;
73776;SDS011;62088;50.240;2.696;2023-02-21T08:05:07;7.00;;;4.00;;
73776;SDS011;62088;50.240;2.696;2023-02-21T08:07:34;5.53;;;3.50;;
73776;SDS011;62088;50.240;2.696;2023-02-21T08:10:02;5.43;;;3.45;;
73776;SDS011;62088;50.240;2.696;2023-02-21T08:12:29;6.75;;;3.65;;
73776;SDS011;62088;50.240;2.696;2023-02-21T08:14:56;6.32;;;4.22;;
73776;SDS011;62088;50.240;2.696;2023-02-21T08:17:24;8.93;;;5.72;;
73776;SDS011;62088;50.240;2.696;2023-02-21T08:19:51;8.70;;;4.05;;
73776;SDS011;62088;50.240;2.696;2023-02-21T08:22:18;5.85;;;4.70;;
73776;SDS011;62088;50.240;2.696;2023-02-21T08:24:47;5.80;;;3.28;;
73776;SDS011;62088;50.240;2.696;2023-02-21T08:27:17;7.95;;;4.63;;
73776;SDS011;62088;50.240;2.696;2023-02-21T08:29:44;5.57;;;3.70;;
73776;SDS011;62088;50.240;2.696;2023-02-21T08:32:15;13.60;;;3.50;;
73776;SDS011;62088;50.240;2.696;2023-02-21T08:34:46;6.40;;;4.38;;
73776;SDS011;62088;50.240;2.696;2023-02-21T08:37:15;5.63;;;3.55;;
73776;SDS011;62088;50.240;2.696;2023-02-21T08:39:50;6.35;;;4.88;;
73776;SDS011;62088;50.240;2.696;2023-02-21T08:42:18;5.60;;;3.75;;
73776;SDS011;62088;50.240;2.696;2023-02-21T08:44:46;5.22;;;3.20;;
73776;SDS011;62088;50.240;2.696;2023-02-21T08:47:13;6.07;;;3.53;;
73776;SDS011;62088;50.240;2.696;2023-02-21T08:49:45;5.80;;;3.30;;
73776;SDS011;62088;50.240;2.696;2023-02-21T08:52:14;4.93;;;3.60;;
73776;SDS011;62088;50.240;2.696;2023-02-21T08:54:42;4.65;;;2.80;;
73776;SDS011;62088;50.240;2.696;2023-02-21T08:57:09;5.15;;;2.88;;
73776;SDS011;62088;50.240;2.696;2023-02-21T08:59:43;11.43;;;3.85;;
73776;SDS011;62088;50.240;2.696;2023-02-21T09:02:16;5.43;;;3.20;;
73776;SDS011;62088;50.240;2.696;2023-02-21T09:04:44;5.20;;;2.90;;
73776;SDS011;62088;50.240;2.696;2023-02-21T09:07:13;6.13;;;4.80;;
73776;SDS011;62088;50.240;2.696;2023-02-21T09:09:41;6.57;;;4.07;;
73776;SDS011;62088;50.240;2.696;2023-02-21T09:12:09;10.68;;;4.00;;
73776;SDS011;62088;50.240;2.696;2023-02-21T09:14:37;8.05;;;4.93;;
73776;SDS011;62088;50.240;2.696;2023-02-21T09:17:09;6.68;;;4.22;;
73776;SDS011;62088;50.240;2.696;2023-02-21T09:19:38;12.90;;;6.15;;
73776;SDS011;62088;50.240;2.696;2023-02-21T09:22:06;7.30;;;4.40;;
73776;SDS011;62088;50.240;2.696;2023-02-21T09:24:34;9.13;;;4.75;;
73776;SDS011;62088;50.240;2.696;2023-02-21T09:27:02;8.05;;;6.05;;
73776;SDS011;62088;50.240;2.696;2023-02-21T09:29:30;9.23;;;7.03;;
73776;SDS011;62088;50.240;2.696;2023-02-21T09:32:11;8.50;;;5.18;;
73776;SDS011;62088;50.240;2.696;2023-02-21T09:34:38;8.35;;;4.32;;
73776;SDS011;62088;50.240;2.696;2023-02-21T09:37:05;7.53;;;5.85;;
73776;SDS011;62088;50.240;2.696;2023-02-21T09:39:32;7.72;;;4.38;;
73776;SDS011;62088;50.240;2.696;2023-02-21T09:42:03;9.52;;;4.88;;
73776;SDS011;62088;50.240;2.696;2023-02-21T09:44:30;8.20;;;4.20;;
73776;SDS011;62088;50.240;2.696;2023-02-21T09:47:01;7.15;;;4.45;;
73776;SDS011;62088;50.240;2.696;2023-02-21T09:52:01;7.78;;;4.95;;
73776;SDS011;62088;50.240;2.696;2023-02-21T09:54:35;9.45;;;6.43;;
73776;SDS011;62088;50.240;2.696;2023-02-21T09:57:10;10.98;;;7.85;;
73776;SDS011;62088;50.240;2.696;2023-02-21T09:59:39;8.07;;;5.32;;
73776;SDS011;62088;50.240;2.696;2023-02-21T10:07:15;9.10;;;5.40;;
73776;SDS011;62088;50.240;2.696;2023-02-21T10:09:58;11.10;;;6.47;;
73776;SDS011;62088;50.240;2.696;2023-02-21T10:12:39;11.38;;;7.47;;
73776;SDS011;62088;50.240;2.696;2023-02-21T10:15:22;9.75;;;7.05;;
73776;SDS011;62088;50.240;2.696;2023-02-21T10:21:15;9.60;;;6.00;;
73776;SDS011;62088;50.240;2.696;2023-02-21T10:23:49;10.38;;;6.53;;
73776;SDS011;62088;50.240;2.696;2023-02-21T10:26:18;11.38;;;7.07;;
73776;SDS011;62088;50.240;2.696;2023-02-21T10:28:50;14.23;;;9.18;;
73776;SDS011;62088;50.240;2.696;2023-02-21T10:31:31;11.18;;;6.43;;
73776;SDS011;62088;50.240;2.696;2023-02-21T10:34:04;11.93;;;9.30;;
73776;SDS011;62088;50.240;2.696;2023-02-21T10:36:33;10.63;;;6.57;;
73776;SDS011;62088;50.240;2.696;2023-02-21T10:39:12;9.57;;;7.72;;
73776;SDS011;62088;50.240;2.696;2023-02-21T10:41:43;9.13;;;5.05;;
73776;SDS011;62088;50.240;2.696;2023-02-21T10:44:44;9.45;;;5.90;;
73776;SDS011;62088;50.240;2.696;2023-02-21T10:50:40;10.57;;;6.88;;
73776;SDS011;62088;50.240;2.696;2023-02-21T10:53:08;10.85;;;7.07;;
73776;SDS011;62088;50.240;2.696;2023-02-21T10:58:33;11.45;;;8.20;;
73776;SDS011;62088;50.240;2.696;2023-02-21T11:01:11;10.52;;;7.57;;
73776;SDS011;62088;50.240;2.696;2023-02-21T11:03:52;12.48;;;7.20;;
73776;SDS011;62088;50.240;2.696;2023-02-21T11:06:24;12.75;;;7.65;;
73776;SDS011;62088;50.240;2.696;2023-02-21T11:09:22;15.50;;;10.02;;
73776;SDS011;62088;50.240;2.696;2023-02-21T11:14:41;13.65;;;8.98;;
73776;SDS011;62088;50.240;2.696;2023-02-21T11:17:28;13.52;;;8.10;;
73776;SDS011;62088;50.240;2.696;2023-02-21T11:30:38;18.55;;;10.57;;
73776;SDS011;62088;50.240;2.696;2023-02-21T11:33:17;19.60;;;14.90;;
73776;SDS011;62088;50.240;2.696;2023-02-21T11:35:49;17.20;;;12.40;;
73776;SDS011;62088;50.240;2.696;2023-02-21T11:38:31;25.38;;;16.33;;
73776;SDS011;62088;50.240;2.696;2023-02-21T11:41:16;19.75;;;11.10;;
73776;SDS011;62088;50.240;2.696;2023-02-21T11:43:50;17.15;;;12.98;;
73776;SDS011;62088;50.240;2.696;2023-02-21T11:46:39;16.88;;;10.57;;
73776;SDS011;62088;50.240;2.696;2023-02-21T11:49:34;20.83;;;15.00;;
73776;SDS011;62088;50.240;2.696;2023-02-21T11:52:05;16.83;;;11.68;;
73776;SDS011;62088;50.240;2.696;2023-02-21T11:54:37;16.95;;;13.27;;
73776;SDS011;62088;50.240;2.696;2023-02-21T11:57:10;15.93;;;13.05;;
73776;SDS011;62088;50.240;2.696;2023-02-21T12:05:31;14.13;;;9.50;;
73776;SDS011;62088;50.240;2.696;2023-02-21T12:10:47;13.18;;;11.45;;
73776;SDS011;62088;50.240;2.696;2023-02-21T12:19:09;14.55;;;12.75;;
73776;SDS011;62088;50.240;2.696;2023-02-21T12:22:00;15.63;;;13.05;;
73776;SDS011;62088;50.240;2.696;2023-02-21T12:24:49;17.85;;;14.85;;
73776;SDS011;62088;50.240;2.696;2023-02-21T12:27:47;17.58;;;15.23;;
73776;SDS011;62088;50.240;2.696;2023-02-21T12:33:50;27.20;;;23.02;;
73776;SDS011;62088;50.240;2.696;2023-02-21T12:52:55;22.05;;;19.42;;
73776;SDS011;62088;50.240;2.696;2023-02-21T12:55:35;21.90;;;19.58;;
73776;SDS011;62088;50.240;2.696;2023-02-21T13:00:43;24.08;;;20.42;;
73776;SDS011;62088;50.240;2.696;2023-02-21T13:06:13;24.02;;;20.55;;
73776;SDS011;62088;50.240;2.696;2023-02-21T13:08:55;25.08;;;20.75;;
73776;SDS011;62088;50.240;2.696;2023-02-21T13:14:03;24.40;;;21.42;;
73776;SDS011;62088;50.240;2.696;2023-02-21T13:16:50;26.25;;;21.45;;
73776;SDS011;62088;50.240;2.696;2023-02-21T13:19:18;26.38;;;22.38;;
73776;SDS011;62088;50.240;2.696;2023-02-21T13:22:01;24.50;;;21.80;;
73776;SDS011;62088;50.240;2.696;2023-02-21T13:29:51;25.75;;;21.15;;
73776;SDS011;62088;50.240;2.696;2023-02-21T13:32:35;25.25;;;21.70;;
73776;SDS011;62088;50.240;2.696;2023-02-21T13:35:06;25.08;;;21.02;;
73776;SDS011;62088;50.240;2.696;2023-02-21T13:37:35;26.20;;;21.80;;
73776;SDS011;62088;50.240;2.696;2023-02-21T13:40:21;25.88;;;21.45;;
73776;SDS011;62088;50.240;2.696;2023-02-21T13:43:02;24.92;;;21.83;;
73776;SDS011;62088;50.240;2.696;2023-02-21T13:45:50;25.67;;;20.45;;
73776;SDS011;62088;50.240;2.696;2023-02-21T13:48:24;27.13;;;21.85;;
73776;SDS011;62088;50.240;2.696;2023-02-21T13:50:53;26.73;;;20.90;;
73776;SDS011;62088;50.240;2.696;2023-02-21T13:53:24;26.90;;;20.75;;
73776;SDS011;62088;50.240;2.696;2023-02-21T13:58:29;22.67;;;20.13;;
73776;SDS011;62088;50.240;2.696;2023-02-21T14:01:14;26.20;;;20.98;;
73776;SDS011;62088;50.240;2.696;2023-02-21T14:03:50;25.33;;;20.13;;
73776;SDS011;62088;50.240;2.696;2023-02-21T14:06:24;27.90;;;20.83;;
73776;SDS011;62088;50.240;2.696;2023-02-21T14:08:58;25.25;;;20.10;;
73776;SDS011;62088;50.240;2.696;2023-02-21T14:11:42;26.52;;;20.58;;
73776;SDS011;62088;50.240;2.696;2023-02-21T14:14:25;25.30;;;20.23;;
73776;SDS011;62088;50.240;2.696;2023-02-21T14:16:59;24.00;;;20.05;;
73776;SDS011;62088;50.240;2.696;2023-02-21T14:19:32;24.15;;;20.48;;
73776;SDS011;62088;50.240;2.696;2023-02-21T14:24:44;25.45;;;20.15;;
73776;SDS011;62088;50.240;2.696;2023-02-21T14:35:20;26.45;;;21.02;;
73776;SDS011;62088;50.240;2.696;2023-02-21T14:40:28;25.63;;;20.70;;
73776;SDS011;62088;50.240;2.696;2023-02-21T15:00:21;27.45;;;19.73;;
73776;SDS011;62088;50.240;2.696;2023-02-21T15:05:52;23.33;;;18.50;;
73776;SDS011;62088;50.240;2.696;2023-02-21T15:08:43;22.38;;;18.23;;
73776;SDS011;62088;50.240;2.696;2023-02-21T15:11:14;23.30;;;18.63;;
73776;SDS011;62088;50.240;2.696;2023-02-21T15:14:10;23.48;;;19.10;;
73776;SDS011;62088;50.240;2.696;2023-02-21T15:16:54;23.05;;;19.15;;
73776;SDS011;62088;50.240;2.696;2023-02-21T15:22:11;23.77;;;19.98;;
73776;SDS011;62088;50.240;2.696;2023-02-21T15:30:17;25.73;;;19.90;;
73776;SDS011;62088;50.240;2.696;2023-02-21T15:32:53;26.10;;;20.80;;
73776;SDS011;62088;50.240;2.696;2023-02-21T15:35:31;27.35;;;22.52;;
73776;SDS011;62088;50.240;2.696;2023-02-21T15:38:02;26.48;;;21.17;;
73776;SDS011;62088;50.240;2.696;2023-02-21T15:40:33;33.03;;;23.27;;
73776;SDS011;62088;50.240;2.696;2023-02-21T15:43:01;27.27;;;21.40;;
73776;SDS011;62088;50.240;2.696;2023-02-21T15:45:31;26.67;;;21.52;;
73776;SDS011;62088;50.240;2.696;2023-02-21T15:48:04;27.17;;;21.88;;
73776;SDS011;62088;50.240;2.696;2023-02-21T15:50:33;26.73;;;22.05;;
73776;SDS011;62088;50.240;2.696;2023-02-21T15:53:15;29.38;;;21.95;;
73776;SDS011;62088;50.240;2.696;2023-02-21T15:55:45;27.95;;;21.73;;
73776;SDS011;62088;50.240;2.696;2023-02-21T15:58:21;27.88;;;21.83;;
73776;SDS011;62088;50.240;2.696;2023-02-21T16:01:03;29.35;;;23.40;;
73776;SDS011;62088;50.240;2.696;2023-02-21T16:08:58;34.13;;;26.20;;
73776;SDS011;62088;50.240;2.696;2023-02-21T16:14:34;31.50;;;25.02;;
73776;SDS011;62088;50.240;2.696;2023-02-21T16:17:30;31.20;;;25.20;;
73776;SDS011;62088;50.240;2.696;2023-02-21T16:20:00;30.60;;;24.83;;
73776;SDS011;62088;50.240;2.696;2023-02-21T16:22:40;30.13;;;24.60;;
73776;SDS011;62088;50.240;2.696;2023-02-21T16:25:29;32.65;;;25.90;;
73776;SDS011;62088;50.240;2.696;2023-02-21T16:27:58;35.10;;;26.55;;
73776;SDS011;62088;50.240;2.696;2023-02-21T16:30:27;36.75;;;26.30;;
73776;SDS011;62088;50.240;2.696;2023-02-21T16:32:59;34.35;;;25.80;;
73776;SDS011;62088;50.240;2.696;2023-02-21T16:35:29;33.28;;;25.00;;
73776;SDS011;62088;50.240;2.696;2023-02-21T16:37:57;38.83;;;26.90;;
73776;SDS011;62088;50.240;2.696;2023-02-21T16:40:32;33.72;;;25.67;;
73776;SDS011;62088;50.240;2.696;2023-02-21T16:43:01;34.78;;;27.55;;
73776;SDS011;62088;50.240;2.696;2023-02-21T16:45:30;35.05;;;26.60;;
73776;SDS011;62088;50.240;2.696;2023-02-21T16:47:58;32.97;;;26.17;;
73776;SDS011;62088;50.240;2.696;2023-02-21T16:50:30;33.33;;;25.85;;
73776;SDS011;62088;50.240;2.696;2023-02-21T16:52:59;31.45;;;26.85;;
73776;SDS011;62088;50.240;2.696;2023-02-21T16:55:27;34.58;;;26.08;;
73776;SDS011;62088;50.240;2.696;2023-02-21T16:57:59;33.85;;;26.23;;
73776;SDS011;62088;50.240;2.696;2023-02-21T17:00:28;30.63;;;24.88;;
73776;SDS011;62088;50.240;2.696;2023-02-21T17:02:57;31.88;;;25.98;;
73776;SDS011;62088;50.240;2.696;2023-02-21T17:05:25;33.70;;;26.83;;
73776;SDS011;62088;50.240;2.696;2023-02-21T17:07:52;32.53;;;25.42;;
73776;SDS011;62088;50.240;2.696;2023-02-21T17:10:20;34.53;;;27.40;;
73776;SDS011;62088;50.240;2.696;2023-02-21T17:12:48;38.42;;;27.55;;
73776;SDS011;62088;50.240;2.696;2023-02-21T17:15:15;35.60;;;26.60;;
73776;SDS011;62088;50.240;2.696;2023-02-21T17:17:42;37.55;;;26.98;;
73776;SDS011;62088;50.240;2.696;2023-02-21T17:20:18;32.05;;;25.48;;
73776;SDS011;62088;50.240;2.696;2023-02-21T17:22:46;35.78;;;28.35;;
73776;SDS011;62088;50.240;2.696;2023-02-21T17:25:14;35.08;;;26.88;;
73776;SDS011;62088;50.240;2.696;2023-02-21T17:27:41;38.75;;;28.02;;
73776;SDS011;62088;50.240;2.696;2023-02-21T17:30:09;34.13;;;26.67;;
73776;SDS011;62088;50.240;2.696;2023-02-21T17:32:38;38.58;;;28.58;;
73776;SDS011;62088;50.240;2.696;2023-02-21T17:35:05;32.95;;;27.13;;
73776;SDS011;62088;50.240;2.696;2023-02-21T17:37:32;43.78;;;28.58;;
73776;SDS011;62088;50.240;2.696;2023-02-21T17:39:59;38.25;;;28.55;;
73776;SDS011;62088;50.240;2.696;2023-02-21T17:42:27;44.00;;;24.35;;
73776;SDS011;62088;50.240;2.696;2023-02-21T17:44:53;44.08;;;31.10;;
73776;SDS011;62088;50.240;2.696;2023-02-21T17:47:22;39.40;;;22.45;;
73776;SDS011;62088;50.240;2.696;2023-02-21T17:49:49;40.13;;;30.83;;
73776;SDS011;62088;50.240;2.696;2023-02-21T17:52:20;39.75;;;28.65;;
73776;SDS011;62088;50.240;2.696;2023-02-21T17:54:47;37.38;;;21.80;;
73776;SDS011;62088;50.240;2.696;2023-02-21T17:57:14;39.00;;;30.38;;
73776;SDS011;62088;50.240;2.696;2023-02-21T17:59:41;39.85;;;29.63;;
73776;SDS011;62088;50.240;2.696;2023-02-21T18:02:09;39.72;;;30.05;;
73776;SDS011;62088;50.240;2.696;2023-02-21T18:04:38;42.80;;;31.23;;